Time;durP1;ratioP1;P1;durP2;ratioP2;P2;SDS_P1;SDS_P2;PMS_P1;PMS_P2;Temp;Humidity;BMP_temperature;BMP_pressure;BME280_temperature;BME280_humidity;BME280_pressure;Samples;Min_cycle;Max_cycle;Signal;HPM_P1;HPM_P2
2022/05/10 00:00:42;;;;;;;2.35;1.27;;;;;;;14.84;74.67;101814.94;6271617;28;20060;-79
2022/05/10 00:03:43;;;;;;;6.05;1.30;;;;;;;14.81;75.17;101815.13;6271968;28;20063;-79
2022/05/10 00:06:51;;;;;;;4.05;1.40;;;;;;;14.76;75.35;101814.50;6272037;28;20052;-80
2022/05/10 00:09:52;;;;;;;2.40;1.33;;;;;;;14.73;76.19;101809.38;6271597;28;20048;-80
2022/05/10 00:12:54;;;;;;;2.03;1.08;;;;;;;14.66;77.15;101801.75;6271804;28;20045;-80
2022/05/10 00:15:56;;;;;;;1.02;0.90;;;;;;;14.65;77.18;101799.22;6271308;28;20056;-79
2022/05/10 00:18:58;;;;;;;1.73;1.10;;;;;;;14.60;77.50;101804.75;6271696;28;20049;-79
2022/05/10 00:22:00;;;;;;;5.40;1.05;;;;;;;14.58;78.61;101795.16;6270466;28;20419;-80
2022/05/10 00:25:01;;;;;;;2.30;1.30;;;;;;;14.52;77.94;101792.84;6271853;28;20045;-79
2022/05/10 00:28:03;;;;;;;4.00;1.30;;;;;;;14.47;79.71;101787.78;6271694;28;20056;-80
2022/05/10 00:31:07;;;;;;;1.90;1.30;;;;;;;14.45;79.94;101782.59;6271156;28;20049;-80
2022/05/10 00:34:08;;;;;;;2.30;1.15;;;;;;;14.43;80.19;101775.66;6271248;28;20466;-80
2022/05/10 00:37:11;;;;;;;4.93;1.30;;;;;;;14.40;80.90;101778.47;6271484;28;20419;-80
2022/05/10 00:40:13;;;;;;;4.90;1.67;;;;;;;14.33;80.42;101777.06;6271181;28;20057;-80
2022/05/10 00:43:21;;;;;;;3.38;1.33;;;;;;;14.29;80.79;101778.16;6270229;28;20049;-79
2022/05/10 00:46:30;;;;;;;1.77;1.10;;;;;;;14.27;80.79;101772.13;6274965;28;20049;-80
2022/05/10 00:49:35;;;;;;;2.73;1.63;;;;;;;14.27;81.68;101778.25;6274921;28;20045;-79
2022/05/10 00:52:46;;;;;;;2.70;1.52;;;;;;;14.21;82.49;101770.63;6274007;28;20056;-80
2022/05/10 00:55:53;;;;;;;1.80;1.30;;;;;;;14.20;82.76;101763.63;6274773;28;20045;-80
2022/05/10 00:59:00;;;;;;;4.40;1.65;;;;;;;14.16;82.65;101764.72;6274995;28;20394;-80
2022/05/10 01:02:08;;;;;;;5.75;1.88;;;;;;;14.13;82.91;101767.56;6273706;28;20056;-80
2022/05/10 01:05:17;;;;;;;5.05;1.23;;;;;;;14.11;82.83;101764.13;6274641;28;20048;-80
2022/05/10 01:08:22;;;;;;;2.22;1.25;;;;;;;14.06;83.29;101766.16;6274686;28;20084;-80
2022/05/10 01:11:28;;;;;;;5.10;1.40;;;;;;;14.00;83.59;101762.03;6273795;28;20484;-80
2022/05/10 01:14:33;;;;;;;3.65;1.70;;;;;;;13.97;85.11;101748.97;6274490;28;20052;-80
2022/05/10 01:17:36;;;;;;;3.25;1.55;;;;;;;13.91;85.68;101742.22;6274621;28;20056;-80
2022/05/10 01:20:44;;;;;;;5.07;2.00;;;;;;;13.90;85.20;101748.44;6273399;28;20053;-80
2022/05/10 01:24:17;;;;;;;2.42;1.70;;;;;;;13.86;87.33;101738.97;6274177;28;20052;-80
2022/05/10 01:27:44;;;;;;;2.15;1.38;;;;;;;13.85;87.32;101737.25;6274152;28;20419;-80
2022/05/10 01:30:47;;;;;;;2.55;1.60;;;;;;;13.81;87.79;101738.34;6273505;28;20055;-80
2022/05/10 01:33:53;;;;;;;4.20;1.60;;;;;;;13.78;88.52;101727.94;6274247;28;20053;-80
2022/05/10 01:37:00;;;;;;;3.33;1.70;;;;;;;13.77;87.71;101726.22;6273850;28;20045;-80
2022/05/10 01:40:08;;;;;;;1.90;1.40;;;;;;;13.77;88.47;101720.94;6239418;28;997915;-81
2022/05/10 01:43:20;;;;;;;4.83;1.93;;;;;;;13.67;88.53;101715.28;6274978;28;20058;-80
2022/05/10 01:46:26;;;;;;;3.15;1.30;;;;;;;13.62;89.99;101717.25;6275537;28;20081;-80
2022/05/10 01:49:31;;;;;;;2.63;1.52;;;;;;;13.64;90.75;101719.84;6275174;28;20060;-80
2022/05/10 01:52:42;;;;;;;2.47;1.50;;;;;;;13.59;90.96;101716.59;6274135;28;20182;-80
2022/05/10 01:55:46;;;;;;;6.68;1.60;;;;;;;13.56;90.66;101714.94;6274676;28;20080;-80
2022/05/10 01:58:49;;;;;;;3.22;1.67;;;;;;;13.58;90.67;101709.56;6275140;28;20053;-80
2022/05/10 02:01:51;;;;;;;2.22;1.60;;;;;;;13.55;91.13;101715.88;6274231;28;20049;-80
2022/05/10 02:04:57;;;;;;;5.85;1.50;;;;;;;13.56;91.00;101706.16;6274852;28;20053;-80
2022/05/10 02:08:05;;;;;;;1.40;1.30;;;;;;;13.54;92.07;101703.63;6275070;28;20489;-80
2022/05/10 02:11:11;;;;;;;3.13;1.73;;;;;;;13.54;92.09;101706.25;6274173;28;20064;-80
2022/05/10 02:14:20;;;;;;;1.92;1.60;;;;;;;13.51;92.70;101697.63;6274634;28;20184;-80
2022/05/10 02:17:29;;;;;;;2.10;1.38;;;;;;;13.51;92.26;101706.41;6274599;28;20056;-80
2022/05/10 02:20:36;;;;;;;3.15;1.60;;;;;;;13.53;91.66;101695.75;6273649;28;20049;-80
2022/05/10 02:23:43;;;;;;;1.70;1.48;;;;;;;13.54;92.72;101689.56;6274411;28;20515;-80
2022/05/10 02:26:50;;;;;;;4.75;2.10;;;;;;;13.47;93.12;101690.78;6274273;28;20048;-82
2022/05/10 02:29:59;;;;;;;3.75;2.30;;;;;;;13.46;93.16;101689.94;6273992;28;20049;-80
2022/05/10 02:33:09;;;;;;;2.75;1.65;;;;;;;13.48;93.44;101681.94;6273996;28;20056;-80
2022/05/10 02:36:11;;;;;;;2.85;2.17;;;;;;;13.45;94.15;101683.81;6274201;28;20048;-80
2022/05/10 02:39:12;;;;;;;6.30;2.38;;;;;;;13.43;94.65;101671.59;6274093;28;20650;-80
2022/05/10 02:42:16;;;;;;;5.07;1.70;;;;;;;13.46;94.18;101674.09;6273170;28;20044;-80
2022/05/10 02:45:18;;;;;;;5.60;2.28;;;;;;;13.42;94.58;101665.47;6274326;28;20041;-81
2022/05/10 02:48:24;;;;;;;2.75;1.80;;;;;;;13.39;95.32;101662.97;6274258;28;20049;-80
2022/05/10 02:51:25;;;;;;;5.20;1.95;;;;;;;13.34;95.84;101657.06;6272616;28;20049;-80
2022/05/10 02:54:26;;;;;;;2.72;1.40;;;;;;;13.37;95.65;101656.94;6273740;28;20492;-80
2022/05/10 02:57:29;;;;;;;4.18;1.77;;;;;;;13.37;95.37;101659.56;6273592;28;20045;-80
2022/05/10 03:00:32;;;;;;;2.83;1.60;;;;;;;13.34;96.56;101656.22;6272370;28;20401;-82
2022/05/10 03:03:36;;;;;;;6.20;2.35;;;;;;;13.30;97.67;101659.94;6273393;28;20052;-81
2022/05/10 03:06:39;;;;;;;2.08;1.50;;;;;;;13.29;98.52;101650.31;6272445;28;20072;-80
2022/05/10 03:09:40;;;;;;;3.05;2.20;;;;;;;13.27;98.56;101647.78;6273417;28;20045;-80
2022/05/10 03:12:41;;;;;;;2.85;1.75;;;;;;;13.24;98.25;101642.63;6272693;28;20052;-80
2022/05/10 03:15:43;;;;;;;4.32;1.75;;;;;;;13.26;98.77;101640.75;6273275;28;20045;-80
2022/05/10 03:18:46;;;;;;;3.22;1.77;;;;;;;13.28;99.54;101653.91;6273318;28;20056;-80
2022/05/10 03:21:48;;;;;;;3.38;1.67;;;;;;;13.28;100.00;101652.09;6271988;28;20057;-80
2022/05/10 03:24:49;;;;;;;5.50;2.20;;;;;;;13.30;99.47;101652.88;6273065;28;20500;-80
2022/05/10 03:27:51;;;;;;;3.97;1.85;;;;;;;13.35;99.39;101642.09;6272731;28;20045;-80
2022/05/10 03:30:52;;;;;;;3.22;1.98;;;;;;;13.39;99.55;101646.28;6272025;28;20041;-80
2022/05/10 03:37:14;;;;;;;3.67;1.90;;;;;;;13.47;99.58;101636.19;6272646;28;20136;-80
2022/05/10 03:40:16;;;;;;;4.07;2.00;;;;;;;13.48;99.61;101637.03;6271920;28;20045;-80
2022/05/10 03:43:17;;;;;;;2.47;1.80;;;;;;;13.50;100.00;101637.84;6272696;28;20068;-80
2022/05/10 03:46:18;;;;;;;3.30;1.90;;;;;;;13.48;100.00;101637.03;6272281;28;20079;-80
2022/05/10 03:49:21;;;;;;;3.10;1.95;;;;;;;13.45;100.00;101630.16;6272461;28;20049;-80
2022/05/10 03:52:23;;;;;;;4.70;2.30;;;;;;;13.41;100.00;101634.72;6271122;28;20120;-80
2022/05/10 03:55:27;;;;;;;2.17;1.52;;;;;;;13.43;100.00;101635.47;6272242;28;20435;-80
2022/05/10 03:58:28;;;;;;;4.47;2.10;;;;;;;13.42;100.00;101635.56;6272048;28;20052;-80
2022/05/10 04:01:30;;;;;;;2.20;1.58;;;;;;;13.42;100.00;101632.94;6271470;28;20052;-80
2022/05/10 04:04:32;;;;;;;1.98;1.45;;;;;;;13.40;100.00;101629.53;6272282;28;20417;-80
2022/05/10 04:07:34;;;;;;;3.40;1.50;;;;;;;13.39;100.00;101630.44;6272124;28;20044;-80
2022/05/10 04:10:35;;;;;;;3.83;1.73;;;;;;;13.38;100.00;101628.75;6271438;28;20049;-80
2022/05/10 04:13:37;;;;;;;3.25;1.80;;;;;;;13.38;100.00;101624.31;6272038;28;20045;-80
2022/05/10 04:16:39;;;;;;;7.38;2.05;;;;;;;13.39;100.00;101622.50;6271884;28;20055;-82
2022/05/10 04:19:41;;;;;;;5.75;2.00;;;;;;;13.33;100.00;101620.19;6271728;28;20457;-80
2022/05/10 04:22:43;;;;;;;4.15;2.10;;;;;;;13.31;100.00;101611.53;6271192;28;20404;-80
2022/05/10 04:25:44;;;;;;;4.18;2.08;;;;;;;13.33;100.00;101614.91;6271568;28;20409;-79
2022/05/10 04:28:46;;;;;;;3.28;1.90;;;;;;;13.34;100.00;101625.38;6272001;28;20053;-80
2022/05/10 04:31:48;;;;;;;3.05;1.98;;;;;;;13.36;100.00;101620.91;6270902;28;20443;-80
2022/05/10 04:34:50;;;;;;;2.95;1.90;;;;;;;13.35;100.00;101618.31;6271930;28;20056;-80
2022/05/10 04:37:52;;;;;;;3.70;2.50;;;;;;;13.37;100.00;101609.41;6271562;28;20045;-80
2022/05/10 04:44:13;;;;;;;4.05;2.03;;;;;;;13.38;100.00;101616.38;6271288;28;20124;-80
2022/05/10 04:47:15;;;;;;;5.55;2.15;;;;;;;13.40;100.00;101616.31;6271111;28;20408;-80
2022/05/10 04:50:18;;;;;;;2.33;1.67;;;;;;;13.40;100.00;101611.91;6269617;28;20048;-80
2022/05/10 04:53:19;;;;;;;3.38;1.85;;;;;;;13.42;100.00;101610.03;6269838;28;20056;-79
2022/05/10 04:56:20;;;;;;;2.63;1.92;;;;;;;13.47;100.00;101619.50;6270006;28;20045;-80
2022/05/10 04:59:22;;;;;;;4.50;2.35;;;;;;;13.49;100.00;101612.34;6269860;28;20531;-81
2022/05/10 05:02:23;;;;;;;4.38;2.35;;;;;;;13.51;100.00;101619.25;6270249;28;20063;-80
2022/05/10 05:05:26;;;;;;;6.95;3.25;;;;;;;13.54;100.00;101611.19;6269440;28;20048;-80
2022/05/10 05:08:28;;;;;;;4.43;2.70;;;;;;;13.56;100.00;101617.22;6270370;28;20508;-80
2022/05/10 05:11:29;;;;;;;3.35;2.35;;;;;;;13.60;100.00;101617.94;6269859;28;20048;-79
2022/05/10 05:14:32;;;;;;;4.78;2.45;;;;;;;13.65;100.00;101624.66;6271082;28;20045;-80
2022/05/10 05:17:33;;;;;;;4.70;1.88;;;;;;;13.71;100.00;101624.34;6273134;28;20095;-80
2022/05/10 05:20:36;;;;;;;3.05;1.92;;;;;;;13.78;100.00;101618.75;6270354;28;20044;-80
2022/05/10 05:23:38;;;;;;;2.42;1.70;;;;;;;13.82;100.00;101620.31;6270564;28;20560;-80
2022/05/10 05:26:39;;;;;;;2.42;1.90;;;;;;;13.90;100.00;101628.69;6269261;28;20052;-80
2022/05/10 05:29:41;;;;;;;2.63;1.80;;;;;;;13.98;100.00;101631.75;6267923;28;20053;-80
2022/05/10 05:32:42;;;;;;;3.28;1.88;;;;;;;14.07;100.00;101631.25;6275120;28;20045;-80
2022/05/10 05:35:45;;;;;;;3.72;1.73;;;;;;;14.19;100.00;101630.59;6275659;28;20048;-80
2022/05/10 05:38:46;;;;;;;3.67;2.00;;;;;;;14.31;100.00;101630.88;6275607;28;20052;-80
2022/05/10 05:41:48;;;;;;;3.05;1.55;;;;;;;14.44;100.00;101623.94;6274080;28;20562;-79
2022/05/10 05:44:50;;;;;;;4.43;1.90;;;;;;;14.57;100.00;101632.94;6274658;28;20056;-80
2022/05/10 05:47:52;;;;;;;3.75;1.92;;;;;;;14.75;98.22;101632.84;6275140;28;20136;-79
2022/05/10 05:50:55;;;;;;;2.50;1.55;;;;;;;14.91;95.88;101631.06;6275346;28;20055;-80
2022/05/10 05:53:56;;;;;;;3.90;1.75;;;;;;;15.06;93.89;101632.81;6276793;28;20048;-79
2022/05/10 05:56:59;;;;;;;2.55;1.90;;;;;;;15.16;92.80;101622.53;6275272;28;20049;-80
2022/05/10 06:00:01;;;;;;;4.82;1.90;;;;;;;15.23;92.50;101629.19;6275040;28;20063;-80
2022/05/10 06:03:03;;;;;;;2.75;1.60;;;;;;;15.31;91.75;101626.09;6274655;28;20131;-79
2022/05/10 06:06:06;;;;;;;6.35;1.60;;;;;;;15.43;89.35;101620.91;6275074;28;20041;-80
2022/05/10 06:09:08;;;;;;;2.00;1.65;;;;;;;15.54;87.72;101619.44;6275027;28;20056;-80
2022/05/10 06:12:12;;;;;;;3.10;1.95;;;;;;;15.63;88.27;101622.38;6274040;28;20045;-80
2022/05/10 06:15:15;;;;;;;2.63;1.70;;;;;;;15.69;87.41;101611.41;6274443;28;20070;-80
2022/05/10 06:18:17;;;;;;;2.60;1.80;;;;;;;15.76;88.96;101611.91;6274681;28;20053;-80
2022/05/10 06:21:19;;;;;;;2.75;1.75;;;;;;;15.81;88.51;101612.47;6274301;28;20061;-80
2022/05/10 06:24:21;;;;;;;2.40;1.70;;;;;;;15.90;87.16;101619.03;6274247;28;20049;-80
2022/05/10 06:27:22;;;;;;;2.70;1.88;;;;;;;16.01;86.15;101613.03;6274197;28;20037;-80
2022/05/10 06:30:25;;;;;;;2.33;1.77;;;;;;;16.09;84.04;101616.06;6273644;28;20045;-80
2022/05/10 06:33:27;;;;;;;3.65;1.90;;;;;;;16.18;83.44;101607.53;6274549;28;20048;-79
2022/05/10 06:36:29;;;;;;;2.33;1.50;;;;;;;16.27;83.81;101606.09;6274525;28;20511;-80
2022/05/10 06:39:31;;;;;;;3.03;2.00;;;;;;;16.40;81.49;101601.72;6273792;28;20052;-81
2022/05/10 06:42:32;;;;;;;2.35;1.88;;;;;;;16.46;81.95;101596.00;6272101;28;20052;-79
2022/05/10 06:45:33;;;;;;;2.15;1.77;;;;;;;16.55;81.04;101600.72;6273986;28;20082;-79
2022/05/10 06:48:35;;;;;;;3.90;2.13;;;;;;;16.61;80.56;101594.16;6273872;28;20037;-80
2022/05/10 06:51:40;;;;;;;2.90;2.03;;;;;;;16.65;80.18;101577.94;6273061;28;20417;-80
2022/05/10 06:54:41;;;;;;;3.15;2.20;;;;;;;16.71;79.66;101585.50;6273850;28;20052;-80
2022/05/10 06:57:43;;;;;;;2.65;1.50;;;;;;;16.76;79.20;101582.59;6273465;28;20052;-80
2022/05/10 07:00:44;;;;;;;3.90;2.10;;;;;;;16.88;76.34;101572.94;6273342;28;20045;-80
2022/05/10 07:03:48;;;;;;;5.10;2.72;;;;;;;16.95;78.27;101569.78;6273758;28;20053;-80
2022/05/10 07:06:50;;;;;;;3.47;1.80;;;;;;;17.01;76.97;101563.22;6273587;28;20488;-79
2022/05/10 07:09:52;;;;;;;3.67;2.00;;;;;;;17.09;75.96;101560.88;6273130;28;20044;-80
2022/05/10 07:12:54;;;;;;;3.40;1.92;;;;;;;17.16;77.18;101564.81;6272327;28;20126;-79
2022/05/10 07:15:56;;;;;;;2.80;1.88;;;;;;;17.32;75.67;101563.78;6273710;28;20509;-81
2022/05/10 07:18:58;;;;;;;7.53;2.30;;;;;;;17.46;74.47;101561.03;6272771;28;20053;-80
2022/05/10 07:22:01;;;;;;;2.85;1.95;;;;;;;17.62;72.91;101560.78;6273147;28;20048;-81
2022/05/10 07:25:02;;;;;;;3.17;1.90;;;;;;;17.83;73.00;101561.13;6272480;28;20058;-78
2022/05/10 07:28:05;;;;;;;2.83;1.95;;;;;;;17.99;72.12;101557.28;6270226;28;20424;-79
2022/05/10 07:31:07;;;;;;;3.65;2.22;;;;;;;18.15;71.33;101554.34;6271515;28;20139;-77
2022/05/10 07:34:09;;;;;;;2.30;2.00;;;;;;;18.22;70.96;101554.78;6272050;28;20424;-78
2022/05/10 07:37:11;;;;;;;3.20;2.55;;;;;;;18.27;69.97;101560.63;6271367;28;20053;-77
2022/05/10 07:40:13;;;;;;;7.82;2.53;;;;;;;18.33;70.37;101560.16;6269417;28;20416;-77
2022/05/10 07:43:14;;;;;;;2.20;1.70;;;;;;;18.42;69.37;101558.63;6271964;28;20052;-78
2022/05/10 07:46:16;;;;;;;6.05;2.42;;;;;;;18.55;68.76;101551.44;6272289;28;20049;-77
2022/05/10 07:49:18;;;;;;;4.30;2.42;;;;;;;18.62;69.28;101558.03;6272317;28;20056;-78
2022/05/10 07:52:20;;;;;;;4.22;1.98;;;;;;;18.73;67.97;101557.25;6271816;28;20052;-79
2022/05/10 07:55:22;;;;;;;2.72;2.00;;;;;;;18.86;67.05;101555.38;6273007;28;20053;-79
2022/05/10 07:58:24;;;;;;;4.15;2.00;;;;;;;18.97;68.15;101552.72;6272277;28;20056;-81
2022/05/10 08:01:26;;;;;;;4.97;2.25;;;;;;;19.15;68.68;101554.97;6271630;28;20523;-78
2022/05/10 08:04:28;;;;;;;2.92;1.95;;;;;;;19.21;68.08;101551.81;6271741;28;20253;-78
2022/05/10 08:07:30;;;;;;;3.92;2.30;;;;;;;19.25;66.82;101550.63;6272634;28;20522;-81
2022/05/10 08:10:32;;;;;;;3.35;2.50;;;;;;;19.24;68.57;101540.94;6271609;28;20063;-81
2022/05/10 08:13:34;;;;;;;5.28;2.35;;;;;;;19.27;67.65;101540.69;6272264;28;20056;-83
2022/05/10 08:16:35;;;;;;;5.50;2.58;;;;;;;19.32;67.06;101541.19;6272291;28;20048;-82
2022/05/10 08:19:36;;;;;;;3.22;2.22;;;;;;;19.37;66.49;101543.50;6272388;28;20049;-82
2022/05/10 08:22:39;;;;;;;10.13;3.65;;;;;;;19.44;66.65;101539.38;6274892;28;20045;-84
2022/05/10 08:25:41;;;;;;;3.45;2.35;;;;;;;19.47;66.68;101545.31;6269166;28;20414;-81
2022/05/10 08:28:42;;;;;;;2.97;1.95;;;;;;;19.51;66.45;101538.78;6271396;28;20051;-81
2022/05/10 08:31:44;;;;;;;2.30;1.85;;;;;;;19.57;65.50;101537.44;6271905;28;20496;-82
2022/05/10 08:34:45;;;;;;;3.45;2.00;;;;;;;19.57;65.96;101528.59;6272853;28;20060;-82
2022/05/10 08:37:48;;;;;;;2.88;2.10;;;;;;;19.58;66.36;101536.50;6271813;28;20049;-80
2022/05/10 08:40:56;;;;;;;2.75;2.15;;;;;;;19.52;65.16;101539.63;6270327;28;20661;-78
2022/05/10 08:44:02;;;;;;;3.13;2.38;;;;;;;19.47;64.97;101541.81;6271041;28;20052;-78
2022/05/10 08:47:07;;;;;;;3.55;2.17;;;;;;;19.39;65.38;101533.56;6270918;28;20052;-79
2022/05/10 08:50:12;;;;;;;3.50;2.60;;;;;;;19.41;66.09;101526.31;6271244;28;20052;-80
2022/05/10 08:53:16;;;;;;;2.75;2.03;;;;;;;19.50;66.89;101521.09;6270175;28;20180;-79
2022/05/10 08:56:24;;;;;;;4.47;2.65;;;;;;;19.68;65.06;101513.50;6271867;28;20053;-80
2022/05/10 08:59:33;;;;;;;5.45;1.95;;;;;;;19.80;65.52;101516.97;6266767;28;20420;-82
2022/05/10 09:02:40;;;;;;;4.57;2.30;;;;;;;19.94;64.23;101511.41;6271506;28;20048;-83
2022/05/10 09:05:44;;;;;;;2.85;2.17;;;;;;;20.04;63.75;101503.50;6273942;28;20052;-81
2022/05/10 09:09:00;;;;;;;5.25;2.25;;;;;;;20.15;61.21;101513.28;6277318;28;20409;-81
2022/05/10 09:12:10;;;;;;;3.47;2.30;;;;;;;20.28;60.59;101501.47;6279244;28;20064;-79
2022/05/10 09:15:13;;;;;;;2.67;1.83;;;;;;;20.42;60.73;101507.50;6281431;28;20041;-83
2022/05/10 09:18:19;;;;;;;3.05;2.00;;;;;;;20.45;61.90;101501.94;6276811;28;20520;-79
2022/05/10 09:21:23;;;;;;;4.35;2.20;;;;;;;20.45;61.80;101492.09;6277948;28;20520;-80
2022/05/10 09:24:32;;;;;;;2.47;1.85;;;;;;;20.54;61.32;101495.00;6281116;28;20140;-82
2022/05/10 09:27:35;;;;;;;;;;;;;;;20.68;60.79;101484.84;6277014;28;20041;-81
2022/05/10 09:30:37;;;;;;;4.32;2.42;;;;;;;20.76;60.51;101485.06;6269581;28;19921;-80
2022/05/10 09:37:13;;;;;;;3.58;2.67;;;;;;;21.08;58.00;101481.47;6277418;28;20080;-83
2022/05/10 09:40:30;;;;;;;5.45;2.00;;;;;;;21.20;55.85;101483.06;6276623;28;20049;-82
2022/05/10 09:43:33;;;;;;;2.78;2.10;;;;;;;21.29;55.24;101473.41;6275173;28;20561;-79
2022/05/10 09:46:35;;;;;;;4.50;2.50;;;;;;;21.42;54.87;101476.72;6275327;28;20055;-83
2022/05/10 09:49:38;;;;;;;4.45;2.35;;;;;;;21.65;53.83;101461.31;6275643;28;20052;-82
2022/05/10 09:52:40;;;;;;;2.75;1.75;;;;;;;21.77;54.29;101465.59;6275826;28;20045;-81
2022/05/10 09:55:54;;;;;;;3.20;2.00;;;;;;;22.04;53.27;101459.59;6275450;28;20393;-81
2022/05/10 09:58:58;;;;;;;6.57;2.70;;;;;;;21.99;52.00;101452.97;6274929;28;20056;-77
2022/05/10 10:02:02;;;;;;;3.38;2.20;;;;;;;22.01;52.85;101443.81;6274442;28;20079;-78
2022/05/10 10:05:22;;;;;;;2.95;2.17;;;;;;;22.14;54.26;101446.25;6274806;28;20132;-78
2022/05/10 10:08:41;;;;;;;11.40;2.83;;;;;;;22.21;53.82;101442.03;6249926;28;20049;-77
2022/05/10 10:11:44;;;;;;;2.28;1.92;;;;;;;22.22;53.14;101441.03;6248814;28;20049;-74
2022/05/10 10:14:48;;;;;;;3.22;2.08;;;;;;;22.19;54.84;101435.13;6249581;28;20053;-76
2022/05/10 10:17:53;;;;;;;2.97;1.88;;;;;;;22.18;54.23;101434.28;6272792;28;20041;-77
2022/05/10 10:20:57;;;;;;;4.10;2.13;;;;;;;22.40;55.31;101426.94;6274454;28;20044;-77
2022/05/10 10:24:00;;;;;;;3.08;1.80;;;;;;;22.54;54.99;101426.50;6275059;28;20049;-76
2022/05/10 10:27:09;;;;;;;2.47;2.08;;;;;;;22.59;52.55;101420.72;6275069;28;20052;-77
2022/05/10 10:30:22;;;;;;;7.05;2.20;;;;;;;22.58;52.19;101414.53;6274591;28;20053;-77
2022/05/10 10:33:34;;;;;;;3.55;2.28;;;;;;;22.67;50.93;101408.28;6274398;28;20059;-75
2022/05/10 10:36:40;;;;;;;3.05;2.10;;;;;;;22.72;50.83;101399.81;6274206;28;20167;-76
2022/05/10 10:39:49;;;;;;;3.05;1.80;;;;;;;22.76;51.39;101396.72;6274545;28;20428;-76
2022/05/10 10:42:59;;;;;;;2.92;1.85;;;;;;;23.03;51.58;101400.47;6272957;23;20421;-75
2022/05/10 10:46:08;;;;;;;3.28;1.92;;;;;;;23.24;47.75;101384.97;6248569;28;20053;-75
2022/05/10 10:49:13;;;;;;;3.17;1.77;;;;;;;23.38;48.73;101380.94;6248664;28;20050;-75
2022/05/10 10:52:17;;;;;;;2.33;1.77;;;;;;;23.65;48.92;101390.84;6242515;28;20390;-75
2022/05/10 10:55:19;;;;;;;6.07;1.95;;;;;;;23.81;47.79;101378.59;6248335;28;20116;-75
2022/05/10 10:58:32;;;;;;;4.35;2.30;;;;;;;23.91;48.19;101374.00;6247944;28;20050;-76
2022/05/10 11:01:48;;;;;;;4.93;2.10;;;;;;;24.12;47.86;101368.31;6247190;28;20057;-76
2022/05/10 11:05:09;;;;;;;2.00;1.75;;;;;;;23.95;46.89;101360.13;6248380;28;20056;-75
2022/05/10 11:08:24;;;;;;;3.42;2.38;;;;;;;23.80;45.59;101364.34;6248565;28;20045;-75
2022/05/10 11:11:36;;;;;;;2.63;1.85;;;;;;;23.69;48.09;101362.72;6247593;28;20056;-78
2022/05/10 11:14:52;;;;;;;2.90;1.83;;;;;;;23.67;47.73;101362.03;6246647;28;20061;-76
2022/05/10 11:18:04;;;;;;;2.28;1.95;;;;;;;23.63;46.56;101349.88;6246862;28;20517;-76
2022/05/10 11:21:20;;;;;;;4.03;2.22;;;;;;;23.77;45.86;101349.38;6246250;28;20049;-77
2022/05/10 11:24:30;;;;;;;3.42;2.17;;;;;;;24.23;44.23;101357.31;6248169;28;20060;-75
2022/05/10 11:27:46;;;;;;;3.45;2.03;;;;;;;23.99;43.92;101360.66;6246586;28;20045;-74
2022/05/10 11:30:56;;;;;;;3.60;2.03;;;;;;;24.21;44.73;101370.94;6243786;28;20054;-76
2022/05/10 11:34:20;;;;;;;2.13;1.88;;;;;;;24.45;44.32;101342.59;6246682;28;20045;-76
2022/05/10 11:37:27;;;;;;;2.90;2.08;;;;;;;24.59;45.42;101343.84;6247815;28;20068;-76
2022/05/10 11:40:47;;;;;;;2.53;2.08;;;;;;;24.44;46.73;101336.38;6245349;28;20045;-76
2022/05/10 11:44:25;;;;;;;2.75;2.45;;;;;;;24.45;45.30;101335.34;6246874;28;20049;-74
2022/05/10 11:48:00;;;;;;;5.03;2.25;;;;;;;24.66;46.28;101329.59;6222779;28;20402;-73
2022/05/10 11:51:42;;;;;;;5.22;1.98;;;;;;;24.70;42.92;101330.13;6222290;28;20045;-73
2022/05/10 11:54:58;;;;;;;4.85;2.22;;;;;;;24.60;44.08;101332.09;6242298;28;20049;-73
2022/05/10 11:58:03;;;;;;;5.15;2.33;;;;;;;24.69;43.51;101329.28;6247519;28;20137;-75
2022/05/10 12:01:10;;;;;;;3.80;2.17;;;;;;;24.59;42.00;101304.38;6246521;28;20050;-73
2022/05/10 12:04:39;;;;;;;5.22;2.10;;;;;;;24.34;42.09;101306.03;6246769;28;20501;-76
2022/05/10 12:07:43;;;;;;;2.92;1.52;;;;;;;24.44;41.68;101301.44;6247084;28;20056;-74
2022/05/10 12:10:45;;;;;;;4.55;1.70;;;;;;;24.41;40.49;101290.16;6246035;28;20052;-76
2022/05/10 12:24:07;;;;;;;3.92;1.70;;;;;;;24.21;42.55;101284.97;6246676;28;20053;-75
2022/05/10 12:27:34;;;;;;;2.28;1.80;;;;;;;24.10;41.00;101269.09;6246880;28;20053;-74
2022/05/10 12:30:36;;;;;;;3.70;2.15;;;;;;;24.02;40.86;101280.63;6221580;28;20054;-75
2022/05/10 12:33:37;;;;;;;2.17;1.63;;;;;;;23.92;42.81;101270.97;6242902;28;20049;-75
2022/05/10 12:36:42;;;;;;;2.40;2.15;;;;;;;23.90;42.20;101273.00;6246739;28;20053;-75
2022/05/10 12:39:43;;;;;;;3.50;1.90;;;;;;;23.87;42.22;101259.88;6244202;28;20057;-75
2022/05/10 12:43:08;;;;;;;3.25;1.83;;;;;;;23.87;40.78;101254.50;6233687;28;20494;-74
2022/05/10 12:46:22;;;;;;;2.25;1.63;;;;;;;23.81;41.44;101242.56;6229716;28;20129;-75
2022/05/10 12:49:35;;;;;;;1.60;1.40;;;;;;;23.86;42.21;101239.41;6227322;28;20050;-75
2022/05/10 12:52:43;;;;;;;1.85;1.45;;;;;;;24.18;40.05;101223.50;6226395;28;20417;-74
2022/05/10 12:55:46;;;;;;;1.92;1.67;;;;;;;24.52;39.83;101228.06;6226932;28;20409;-75
2022/05/10 12:58:50;;;;;;;1.65;1.48;;;;;;;24.71;40.87;101229.69;6226757;28;20042;-76
2022/05/10 13:01:54;;;;;;;2.72;1.73;;;;;;;24.74;41.19;101230.19;6226244;28;20053;-76
2022/05/10 13:05:02;;;;;;;2.45;1.60;;;;;;;24.52;41.14;101218.16;6226779;28;20053;-76
2022/05/10 13:08:21;;;;;;;1.98;1.50;;;;;;;24.39;41.76;101224.97;6226650;28;20464;-75
2022/05/10 13:11:24;;;;;;;;;;;;;;;24.35;40.49;101213.69;6226295;28;20141;-76
2022/05/10 13:14:29;;;;;;;2.63;1.60;;;;;;;24.48;39.75;101203.38;6227744;28;19925;-75
2022/05/10 13:17:34;;;;;;;2.05;1.50;;;;;;;24.83;42.55;101209.53;6226486;28;20049;-76
2022/05/10 13:20:35;;;;;;;5.35;1.67;;;;;;;25.10;41.04;101211.16;6225791;28;20042;-76
2022/05/10 13:23:39;;;;;;;3.70;2.35;;;;;;;25.14;40.04;101212.50;6226252;28;20425;-76
2022/05/10 13:26:54;;;;;;;2.33;1.48;;;;;;;24.92;40.71;101197.81;6228874;28;20058;-77
2022/05/10 13:29:57;;;;;;;3.75;1.95;;;;;;;24.81;41.80;101192.75;6244376;28;20049;-76
2022/05/10 13:32:58;;;;;;;2.00;1.70;;;;;;;24.95;41.84;101194.78;6250253;28;20056;-75
2022/05/10 13:36:03;;;;;;;2.47;1.65;;;;;;;24.97;41.41;101200.00;6240751;28;20433;-76
2022/05/10 13:39:06;;;;;;;3.78;1.60;;;;;;;25.20;40.74;101211.00;6236190;28;20088;-76
2022/05/10 13:42:09;;;;;;;2.05;1.63;;;;;;;25.61;40.71;101184.09;6234956;28;20049;-77
2022/05/10 13:45:12;;;;;;;2.28;1.70;;;;;;;25.50;38.95;101185.28;6227115;28;20042;-78
2022/05/10 13:48:15;;;;;;;2.88;1.73;;;;;;;25.38;40.25;101183.94;6225651;28;20045;-76
2022/05/10 13:51:19;;;;;;;1.83;1.50;;;;;;;25.46;39.52;101170.50;6240628;28;20045;-78
2022/05/10 13:54:26;;;;;;;2.08;1.65;;;;;;;25.50;38.15;101171.84;6235382;28;20505;-75
2022/05/10 13:57:29;;;;;;;4.95;1.63;;;;;;;25.43;39.22;101162.75;6249984;28;20489;-74
2022/05/10 14:00:34;;;;;;;3.97;1.70;;;;;;;25.24;39.83;101158.53;6249630;28;20061;-74
2022/05/10 14:03:38;;;;;;;2.60;1.50;;;;;;;25.11;40.30;101159.03;6250038;28;20052;-75
2022/05/10 14:06:43;;;;;;;1.98;1.60;;;;;;;25.01;41.18;101152.94;6250200;28;20140;-75
2022/05/10 14:09:48;;;;;;;1.70;1.23;;;;;;;24.93;39.00;101144.84;6246454;28;20037;-76
2022/05/10 14:12:52;;;;;;;2.65;1.55;;;;;;;24.74;40.09;101144.16;6248758;28;20054;-75
2022/05/10 14:15:54;;;;;;;4.88;2.28;;;;;;;24.65;38.05;101142.44;6249534;28;20049;-75
2022/05/10 14:18:56;;;;;;;1.80;1.40;;;;;;;24.70;38.16;101134.72;6249749;28;20516;-75
2022/05/10 14:22:01;;;;;;;1.70;1.40;;;;;;;24.71;38.37;101132.91;6248923;28;20045;-74
2022/05/10 14:25:04;;;;;;;2.22;1.60;;;;;;;24.67;38.74;101136.94;6249866;28;20127;-75
2022/05/10 14:28:15;;;;;;;1.48;1.35;;;;;;;24.64;39.69;101129.19;6249385;28;20417;-75
2022/05/10 14:31:27;;;;;;;2.00;1.58;;;;;;;24.60;38.02;101144.78;6248779;28;20103;-76
2022/05/10 14:34:46;;;;;;;3.70;1.67;;;;;;;24.54;37.01;101129.34;6249352;28;20049;-74
2022/05/10 14:37:48;;;;;;;2.70;1.30;;;;;;;24.50;37.62;101125.28;6249057;28;20052;-75
2022/05/10 14:40:52;;;;;;;1.65;1.40;;;;;;;24.60;37.70;101130.50;6248300;28;20053;-74